sensor_id;sensor_type;location;lat;lon;timestamp;temperature;humidity
24382;DHT22;12502;50.678;7.172;2023-03-23T00:00:28;13.40;99.90
24382;DHT22;12502;50.678;7.172;2023-03-23T00:05:29;13.40;99.90
24382;DHT22;12502;50.678;7.172;2023-03-23T00:10:29;13.40;99.90
24382;DHT22;12502;50.678;7.172;2023-03-23T00:15:33;13.30;99.90
24382;DHT22;12502;50.678;7.172;2023-03-23T00:20:37;13.40;99.90
24382;DHT22;12502;50.678;7.172;2023-03-23T00:25:40;13.30;99.90
24382;DHT22;12502;50.678;7.172;2023-03-23T00:30:40;13.40;99.90
24382;DHT22;12502;50.678;7.172;2023-03-23T00:35:42;13.20;99.90
24382;DHT22;12502;50.678;7.172;2023-03-23T00:40:45;13.30;99.90
24382;DHT22;12502;50.678;7.172;2023-03-23T00:45:47;13.20;99.90
24382;DHT22;12502;50.678;7.172;2023-03-23T00:50:52;13.20;99.90
24382;DHT22;12502;50.678;7.172;2023-03-23T00:55:53;13.30;99.90
24382;DHT22;12502;50.678;7.172;2023-03-23T01:00:54;13.10;99.90
24382;DHT22;12502;50.678;7.172;2023-03-23T01:05:55;13.30;99.90
24382;DHT22;12502;50.678;7.172;2023-03-23T01:11:01;13.20;99.90
24382;DHT22;12502;50.678;7.172;2023-03-23T01:16:03;13.20;99.90
24382;DHT22;12502;50.678;7.172;2023-03-23T01:21:12;13.20;99.90
24382;DHT22;12502;50.678;7.172;2023-03-23T01:26:14;13.10;99.90
24382;DHT22;12502;50.678;7.172;2023-03-23T01:31:16;13.20;99.90
24382;DHT22;12502;50.678;7.172;2023-03-23T01:36:18;13.10;99.90
24382;DHT22;12502;50.678;7.172;2023-03-23T01:41:19;13.10;99.90
24382;DHT22;12502;50.678;7.172;2023-03-23T01:46:20;13.10;99.90
24382;DHT22;12502;50.678;7.172;2023-03-23T01:51:22;13.10;99.90
24382;DHT22;12502;50.678;7.172;2023-03-23T01:56:24;13.00;99.90
24382;DHT22;12502;50.678;7.172;2023-03-23T02:01:25;12.90;99.90
24382;DHT22;12502;50.678;7.172;2023-03-23T02:06:26;13.00;99.90
24382;DHT22;12502;50.678;7.172;2023-03-23T02:11:27;13.10;99.90
24382;DHT22;12502;50.678;7.172;2023-03-23T02:26:46;12.90;99.90
24382;DHT22;12502;50.678;7.172;2023-03-23T02:32:03;12.80;99.90
24382;DHT22;12502;50.678;7.172;2023-03-23T02:37:27;12.70;99.90
24382;DHT22;12502;50.678;7.172;2023-03-23T02:42:29;12.60;99.90
24382;DHT22;12502;50.678;7.172;2023-03-23T02:47:32;12.50;99.90
24382;DHT22;12502;50.678;7.172;2023-03-23T02:52:34;12.50;99.90
24382;DHT22;12502;50.678;7.172;2023-03-23T02:57:36;12.40;99.90
24382;DHT22;12502;50.678;7.172;2023-03-23T03:02:38;12.30;99.90
24382;DHT22;12502;50.678;7.172;2023-03-23T03:07:47;12.20;99.90
24382;DHT22;12502;50.678;7.172;2023-03-23T03:18:06;12.20;99.90
24382;DHT22;12502;50.678;7.172;2023-03-23T03:23:08;12.20;99.90
24382;DHT22;12502;50.678;7.172;2023-03-23T03:28:14;12.30;99.90
24382;DHT22;12502;50.678;7.172;2023-03-23T03:33:15;12.30;99.90
24382;DHT22;12502;50.678;7.172;2023-03-23T03:38:18;12.30;99.90
24382;DHT22;12502;50.678;7.172;2023-03-23T03:43:18;12.20;99.90
24382;DHT22;12502;50.678;7.172;2023-03-23T03:48:19;12.30;99.90
24382;DHT22;12502;50.678;7.172;2023-03-23T03:53:19;12.30;99.90
24382;DHT22;12502;50.678;7.172;2023-03-23T03:58:21;12.30;99.90
24382;DHT22;12502;50.678;7.172;2023-03-23T04:03:21;12.30;99.90
24382;DHT22;12502;50.678;7.172;2023-03-23T04:08:22;12.30;99.90
24382;DHT22;12502;50.678;7.172;2023-03-23T04:13:23;12.40;99.90
24382;DHT22;12502;50.678;7.172;2023-03-23T04:18:24;12.40;99.90
24382;DHT22;12502;50.678;7.172;2023-03-23T04:23:25;12.40;99.90
24382;DHT22;12502;50.678;7.172;2023-03-23T04:28:26;12.40;99.90
24382;DHT22;12502;50.678;7.172;2023-03-23T04:33:28;12.40;99.90
24382;DHT22;12502;50.678;7.172;2023-03-23T04:38:30;12.40;99.90
24382;DHT22;12502;50.678;7.172;2023-03-23T04:43:32;12.40;99.90
24382;DHT22;12502;50.678;7.172;2023-03-23T04:48:41;12.30;99.90
24382;DHT22;12502;50.678;7.172;2023-03-23T04:53:42;12.30;99.90
24382;DHT22;12502;50.678;7.172;2023-03-23T04:58:42;12.30;99.90
24382;DHT22;12502;50.678;7.172;2023-03-23T05:03:44;12.30;99.90
24382;DHT22;12502;50.678;7.172;2023-03-23T05:08:44;12.30;99.90
24382;DHT22;12502;50.678;7.172;2023-03-23T05:13:45;12.30;99.90
24382;DHT22;12502;50.678;7.172;2023-03-23T05:18:46;12.30;99.90
24382;DHT22;12502;50.678;7.172;2023-03-23T05:23:46;12.30;99.90
24382;DHT22;12502;50.678;7.172;2023-03-23T05:28:47;12.20;99.90
24382;DHT22;12502;50.678;7.172;2023-03-23T05:33:49;12.30;99.90
24382;DHT22;12502;50.678;7.172;2023-03-23T05:38:51;12.20;99.90
24382;DHT22;12502;50.678;7.172;2023-03-23T05:43:51;12.10;99.90
24382;DHT22;12502;50.678;7.172;2023-03-23T05:48:52;12.00;99.90
24382;DHT22;12502;50.678;7.172;2023-03-23T05:53:54;12.00;99.90
24382;DHT22;12502;50.678;7.172;2023-03-23T05:58:55;12.10;99.90
24382;DHT22;12502;50.678;7.172;2023-03-23T06:03:55;12.10;99.90
24382;DHT22;12502;50.678;7.172;2023-03-23T06:08:58;12.20;99.90
24382;DHT22;12502;50.678;7.172;2023-03-23T06:13:59;12.20;99.90
24382;DHT22;12502;50.678;7.172;2023-03-23T06:18:59;12.20;99.90
24382;DHT22;12502;50.678;7.172;2023-03-23T06:24:01;12.30;99.90
24382;DHT22;12502;50.678;7.172;2023-03-23T06:29:02;12.30;99.90
24382;DHT22;12502;50.678;7.172;2023-03-23T06:34:02;12.30;99.90
24382;DHT22;12502;50.678;7.172;2023-03-23T06:39:03;12.30;99.90
24382;DHT22;12502;50.678;7.172;2023-03-23T06:44:07;12.40;99.90
24382;DHT22;12502;50.678;7.172;2023-03-23T06:49:08;12.40;99.90
24382;DHT22;12502;50.678;7.172;2023-03-23T06:54:10;12.50;99.90
24382;DHT22;12502;50.678;7.172;2023-03-23T06:59:10;12.50;99.90
24382;DHT22;12502;50.678;7.172;2023-03-23T07:04:11;12.60;99.90
24382;DHT22;12502;50.678;7.172;2023-03-23T07:09:12;12.70;99.90
24382;DHT22;12502;50.678;7.172;2023-03-23T07:14:13;12.80;99.90
24382;DHT22;12502;50.678;7.172;2023-03-23T07:19:13;12.80;99.90
24382;DHT22;12502;50.678;7.172;2023-03-23T07:24:14;12.90;99.90
24382;DHT22;12502;50.678;7.172;2023-03-23T07:29:14;12.90;99.90
24382;DHT22;12502;50.678;7.172;2023-03-23T07:34:15;13.00;99.90
24382;DHT22;12502;50.678;7.172;2023-03-23T07:39:15;13.00;99.90
24382;DHT22;12502;50.678;7.172;2023-03-23T07:44:16;13.30;99.90
24382;DHT22;12502;50.678;7.172;2023-03-23T07:49:17;13.20;99.90
24382;DHT22;12502;50.678;7.172;2023-03-23T07:54:17;13.30;99.90
24382;DHT22;12502;50.678;7.172;2023-03-23T07:59:19;13.30;99.90
24382;DHT22;12502;50.678;7.172;2023-03-23T08:04:19;13.40;99.90
24382;DHT22;12502;50.678;7.172;2023-03-23T08:09:20;13.50;99.90
24382;DHT22;12502;50.678;7.172;2023-03-23T08:14:20;13.50;99.90
24382;DHT22;12502;50.678;7.172;2023-03-23T08:19:21;13.60;99.90
24382;DHT22;12502;50.678;7.172;2023-03-23T08:24:22;13.70;99.90
24382;DHT22;12502;50.678;7.172;2023-03-23T08:29:22;13.60;99.90
24382;DHT22;12502;50.678;7.172;2023-03-23T08:34:23;13.80;99.90
24382;DHT22;12502;50.678;7.172;2023-03-23T08:39:24;13.80;99.90
24382;DHT22;12502;50.678;7.172;2023-03-23T08:44:25;13.80;99.90
24382;DHT22;12502;50.678;7.172;2023-03-23T08:49:26;13.90;99.90
24382;DHT22;12502;50.678;7.172;2023-03-23T08:54:26;13.90;99.90
24382;DHT22;12502;50.678;7.172;2023-03-23T08:59:27;14.00;99.90
24382;DHT22;12502;50.678;7.172;2023-03-23T09:04:27;14.10;99.90
24382;DHT22;12502;50.678;7.172;2023-03-23T09:09:28;14.10;99.90
24382;DHT22;12502;50.678;7.172;2023-03-23T09:14:29;14.10;99.90
24382;DHT22;12502;50.678;7.172;2023-03-23T09:19:30;14.30;99.90
24382;DHT22;12502;50.678;7.172;2023-03-23T09:24:31;14.30;99.90
24382;DHT22;12502;50.678;7.172;2023-03-23T09:29:31;14.40;99.90
24382;DHT22;12502;50.678;7.172;2023-03-23T09:34:32;14.40;99.90
24382;DHT22;12502;50.678;7.172;2023-03-23T09:39:35;14.50;99.90
24382;DHT22;12502;50.678;7.172;2023-03-23T09:49:41;14.50;99.90
24382;DHT22;12502;50.678;7.172;2023-03-23T09:54:44;14.70;99.90
24382;DHT22;12502;50.678;7.172;2023-03-23T10:04:48;15.10;99.90
24382;DHT22;12502;50.678;7.172;2023-03-23T10:09:50;15.40;99.90
24382;DHT22;12502;50.678;7.172;2023-03-23T10:15:08;15.10;99.90
24382;DHT22;12502;50.678;7.172;2023-03-23T10:25:16;14.70;99.90
24382;DHT22;12502;50.678;7.172;2023-03-23T10:30:22;14.60;99.90
24382;DHT22;12502;50.678;7.172;2023-03-23T10:35:45;14.80;99.90
24382;DHT22;12502;50.678;7.172;2023-03-23T10:40:56;15.00;99.90
24382;DHT22;12502;50.678;7.172;2023-03-23T10:46:02;15.20;99.90
24382;DHT22;12502;50.678;7.172;2023-03-23T10:51:05;15.30;99.90
24382;DHT22;12502;50.678;7.172;2023-03-23T11:01:33;15.20;99.90
24382;DHT22;12502;50.678;7.172;2023-03-23T11:06:35;15.00;99.90
24382;DHT22;12502;50.678;7.172;2023-03-23T11:11:41;14.70;99.90
24382;DHT22;12502;50.678;7.172;2023-03-23T11:16:45;15.00;99.90
24382;DHT22;12502;50.678;7.172;2023-03-23T11:21:47;15.40;99.90
24382;DHT22;12502;50.678;7.172;2023-03-23T11:26:48;15.30;99.90
24382;DHT22;12502;50.678;7.172;2023-03-23T11:31:50;15.50;99.90
24382;DHT22;12502;50.678;7.172;2023-03-23T11:36:53;15.50;99.90
24382;DHT22;12502;50.678;7.172;2023-03-23T11:41:56;15.50;99.90
24382;DHT22;12502;50.678;7.172;2023-03-23T11:46:59;15.60;99.90
24382;DHT22;12502;50.678;7.172;2023-03-23T11:52:05;15.60;99.90
24382;DHT22;12502;50.678;7.172;2023-03-23T11:57:10;15.90;99.90
24382;DHT22;12502;50.678;7.172;2023-03-23T12:18:06;16.00;99.90
24382;DHT22;12502;50.678;7.172;2023-03-23T12:23:00;16.30;99.90
24382;DHT22;12502;50.678;7.172;2023-03-23T12:33:45;16.20;99.90
24382;DHT22;12502;50.678;7.172;2023-03-23T12:43:54;16.10;99.90
24382;DHT22;12502;50.678;7.172;2023-03-23T12:54:19;16.10;99.90
24382;DHT22;12502;50.678;7.172;2023-03-23T12:59:29;15.90;99.90
24382;DHT22;12502;50.678;7.172;2023-03-23T13:04:32;15.70;99.90
24382;DHT22;12502;50.678;7.172;2023-03-23T13:09:45;15.80;99.90
24382;DHT22;12502;50.678;7.172;2023-03-23T13:30:55;15.80;99.90
24382;DHT22;12502;50.678;7.172;2023-03-23T13:36:01;15.80;99.90
24382;DHT22;12502;50.678;7.172;2023-03-23T13:41:10;15.90;99.90
24382;DHT22;12502;50.678;7.172;2023-03-23T13:51:36;16.10;99.90
24382;DHT22;12502;50.678;7.172;2023-03-23T13:57:02;16.10;99.90
24382;DHT22;12502;50.678;7.172;2023-03-23T14:07:23;16.80;99.90
24382;DHT22;12502;50.678;7.172;2023-03-23T14:12:26;17.10;99.90
24382;DHT22;12502;50.678;7.172;2023-03-23T14:17:28;16.90;99.90
24382;DHT22;12502;50.678;7.172;2023-03-23T14:22:36;16.90;99.90
24382;DHT22;12502;50.678;7.172;2023-03-23T14:27:39;16.60;99.90
24382;DHT22;12502;50.678;7.172;2023-03-23T14:32:39;16.60;99.90
24382;DHT22;12502;50.678;7.172;2023-03-23T14:37:40;16.40;99.90
24382;DHT22;12502;50.678;7.172;2023-03-23T14:42:41;16.40;99.90
24382;DHT22;12502;50.678;7.172;2023-03-23T14:47:44;16.20;99.90
24382;DHT22;12502;50.678;7.172;2023-03-23T14:52:47;16.00;99.90
24382;DHT22;12502;50.678;7.172;2023-03-23T14:57:48;16.10;99.90
24382;DHT22;12502;50.678;7.172;2023-03-23T15:02:49;16.20;99.90
24382;DHT22;12502;50.678;7.172;2023-03-23T15:07:53;16.30;99.90
24382;DHT22;12502;50.678;7.172;2023-03-23T15:12:54;16.30;99.90
24382;DHT22;12502;50.678;7.172;2023-03-23T15:17:58;16.50;99.90
24382;DHT22;12502;50.678;7.172;2023-03-23T15:23:06;16.30;99.90
24382;DHT22;12502;50.678;7.172;2023-03-23T15:28:12;16.30;99.90
24382;DHT22;12502;50.678;7.172;2023-03-23T15:33:14;16.20;99.90
24382;DHT22;12502;50.678;7.172;2023-03-23T15:38:31;16.10;99.90
24382;DHT22;12502;50.678;7.172;2023-03-23T15:43:48;16.20;99.90
24382;DHT22;12502;50.678;7.172;2023-03-23T15:53:54;16.00;99.90
24382;DHT22;12502;50.678;7.172;2023-03-23T15:58:54;15.90;99.90
24382;DHT22;12502;50.678;7.172;2023-03-23T16:04:08;16.00;99.90
24382;DHT22;12502;50.678;7.172;2023-03-23T16:09:12;16.00;99.90
24382;DHT22;12502;50.678;7.172;2023-03-23T16:14:14;15.80;99.90
24382;DHT22;12502;50.678;7.172;2023-03-23T16:19:16;15.80;99.90
24382;DHT22;12502;50.678;7.172;2023-03-23T16:24:20;15.70;99.90
24382;DHT22;12502;50.678;7.172;2023-03-23T16:29:22;15.70;99.90
24382;DHT22;12502;50.678;7.172;2023-03-23T16:34:43;15.70;99.90
24382;DHT22;12502;50.678;7.172;2023-03-23T16:39:45;15.60;99.90
24382;DHT22;12502;50.678;7.172;2023-03-23T16:44:47;15.60;99.90
24382;DHT22;12502;50.678;7.172;2023-03-23T16:49:51;15.40;99.90
24382;DHT22;12502;50.678;7.172;2023-03-23T16:54:53;15.40;99.90
24382;DHT22;12502;50.678;7.172;2023-03-23T16:59:54;15.30;99.90
24382;DHT22;12502;50.678;7.172;2023-03-23T17:04:58;15.20;99.90
24382;DHT22;12502;50.678;7.172;2023-03-23T17:10:01;15.20;99.90
24382;DHT22;12502;50.678;7.172;2023-03-23T17:15:03;15.10;99.90
24382;DHT22;12502;50.678;7.172;2023-03-23T17:20:05;15.10;99.90
24382;DHT22;12502;50.678;7.172;2023-03-23T17:25:08;15.00;99.90
24382;DHT22;12502;50.678;7.172;2023-03-23T17:30:10;14.90;99.90
24382;DHT22;12502;50.678;7.172;2023-03-23T17:35:12;14.90;99.90
24382;DHT22;12502;50.678;7.172;2023-03-23T17:40:13;14.80;99.90
24382;DHT22;12502;50.678;7.172;2023-03-23T17:45:15;14.70;99.90
24382;DHT22;12502;50.678;7.172;2023-03-23T17:50:17;14.70;99.90
24382;DHT22;12502;50.678;7.172;2023-03-23T17:55:18;14.70;99.90
24382;DHT22;12502;50.678;7.172;2023-03-23T18:00:20;14.70;99.90
24382;DHT22;12502;50.678;7.172;2023-03-23T18:05:22;14.70;99.90
24382;DHT22;12502;50.678;7.172;2023-03-23T18:10:24;14.60;99.90
24382;DHT22;12502;50.678;7.172;2023-03-23T18:15:26;14.60;99.90
24382;DHT22;12502;50.678;7.172;2023-03-23T18:20:30;14.60;99.90
24382;DHT22;12502;50.678;7.172;2023-03-23T18:25:32;14.60;99.90
24382;DHT22;12502;50.678;7.172;2023-03-23T18:30:34;14.50;99.90
24382;DHT22;12502;50.678;7.172;2023-03-23T18:35:36;14.60;99.90
24382;DHT22;12502;50.678;7.172;2023-03-23T18:40:41;14.50;99.90
24382;DHT22;12502;50.678;7.172;2023-03-23T18:45:53;14.50;99.90
24382;DHT22;12502;50.678;7.172;2023-03-23T18:50:56;14.50;99.90
24382;DHT22;12502;50.678;7.172;2023-03-23T18:56:17;14.60;99.90
24382;DHT22;12502;50.678;7.172;2023-03-23T19:01:18;14.50;99.90
24382;DHT22;12502;50.678;7.172;2023-03-23T19:06:24;14.40;99.90
24382;DHT22;12502;50.678;7.172;2023-03-23T19:11:26;14.50;99.90
24382;DHT22;12502;50.678;7.172;2023-03-23T19:16:32;14.50;99.90
24382;DHT22;12502;50.678;7.172;2023-03-23T19:21:36;14.40;99.90
24382;DHT22;12502;50.678;7.172;2023-03-23T19:26:40;14.40;99.90
24382;DHT22;12502;50.678;7.172;2023-03-23T19:31:43;14.40;99.90
24382;DHT22;12502;50.678;7.172;2023-03-23T19:36:47;14.40;99.90
24382;DHT22;12502;50.678;7.172;2023-03-23T19:41:59;14.40;99.90
24382;DHT22;12502;50.678;7.172;2023-03-23T19:47:01;14.20;99.90
24382;DHT22;12502;50.678;7.172;2023-03-23T19:52:03;14.20;99.90
24382;DHT22;12502;50.678;7.172;2023-03-23T19:57:13;14.20;99.90
24382;DHT22;12502;50.678;7.172;2023-03-23T20:02:15;14.10;99.90
24382;DHT22;12502;50.678;7.172;2023-03-23T20:07:17;14.10;99.90
24382;DHT22;12502;50.678;7.172;2023-03-23T20:12:21;14.00;99.90
24382;DHT22;12502;50.678;7.172;2023-03-23T20:17:23;13.90;99.90
24382;DHT22;12502;50.678;7.172;2023-03-23T20:22:25;13.90;99.90
24382;DHT22;12502;50.678;7.172;2023-03-23T20:27:26;13.90;99.90
24382;DHT22;12502;50.678;7.172;2023-03-23T20:32:29;13.90;99.90
24382;DHT22;12502;50.678;7.172;2023-03-23T20:37:33;13.90;99.90
24382;DHT22;12502;50.678;7.172;2023-03-23T20:42:34;13.90;99.90
24382;DHT22;12502;50.678;7.172;2023-03-23T20:47:36;13.80;99.90
24382;DHT22;12502;50.678;7.172;2023-03-23T20:52:38;13.80;99.90
24382;DHT22;12502;50.678;7.172;2023-03-23T20:57:40;13.70;99.90
24382;DHT22;12502;50.678;7.172;2023-03-23T21:02:42;13.70;99.90
24382;DHT22;12502;50.678;7.172;2023-03-23T21:07:45;13.70;99.90
24382;DHT22;12502;50.678;7.172;2023-03-23T21:12:47;13.70;99.90
24382;DHT22;12502;50.678;7.172;2023-03-23T21:17:49;13.70;99.90
24382;DHT22;12502;50.678;7.172;2023-03-23T21:22:51;13.80;99.90
24382;DHT22;12502;50.678;7.172;2023-03-23T21:27:53;13.90;99.90
24382;DHT22;12502;50.678;7.172;2023-03-23T21:32:59;14.10;99.90
24382;DHT22;12502;50.678;7.172;2023-03-23T21:38:01;14.20;99.90
24382;DHT22;12502;50.678;7.172;2023-03-23T21:43:05;14.30;99.90
24382;DHT22;12502;50.678;7.172;2023-03-23T21:48:13;14.30;99.90
24382;DHT22;12502;50.678;7.172;2023-03-23T21:53:15;14.30;99.90
24382;DHT22;12502;50.678;7.172;2023-03-23T21:58:22;14.30;99.90
24382;DHT22;12502;50.678;7.172;2023-03-23T22:03:24;14.40;99.90
24382;DHT22;12502;50.678;7.172;2023-03-23T22:08:27;14.40;99.90
24382;DHT22;12502;50.678;7.172;2023-03-23T22:13:29;14.40;99.90
24382;DHT22;12502;50.678;7.172;2023-03-23T22:18:32;14.40;99.90
24382;DHT22;12502;50.678;7.172;2023-03-23T22:23:35;14.50;99.90
24382;DHT22;12502;50.678;7.172;2023-03-23T22:28:37;14.50;99.90
24382;DHT22;12502;50.678;7.172;2023-03-23T22:33:39;14.50;99.90
24382;DHT22;12502;50.678;7.172;2023-03-23T22:38:41;14.40;99.90
24382;DHT22;12502;50.678;7.172;2023-03-23T22:43:43;14.40;99.90
24382;DHT22;12502;50.678;7.172;2023-03-23T22:48:45;14.30;99.90
24382;DHT22;12502;50.678;7.172;2023-03-23T22:53:47;14.40;99.90
24382;DHT22;12502;50.678;7.172;2023-03-23T22:58:50;14.30;99.90
24382;DHT22;12502;50.678;7.172;2023-03-23T23:03:51;14.30;99.90
24382;DHT22;12502;50.678;7.172;2023-03-23T23:08:53;14.40;99.90
24382;DHT22;12502;50.678;7.172;2023-03-23T23:13:55;14.30;99.90
24382;DHT22;12502;50.678;7.172;2023-03-23T23:18:57;14.30;99.90
24382;DHT22;12502;50.678;7.172;2023-03-23T23:23:58;14.30;99.90
24382;DHT22;12502;50.678;7.172;2023-03-23T23:29:00;14.30;99.90
24382;DHT22;12502;50.678;7.172;2023-03-23T23:34:03;14.30;99.90
24382;DHT22;12502;50.678;7.172;2023-03-23T23:39:05;14.20;99.90
24382;DHT22;12502;50.678;7.172;2023-03-23T23:44:07;14.30;99.90
24382;DHT22;12502;50.678;7.172;2023-03-23T23:49:08;14.30;99.90
24382;DHT22;12502;50.678;7.172;2023-03-23T23:54:10;14.30;99.90
24382;DHT22;12502;50.678;7.172;2023-03-23T23:59:15;14.30;99.90
